05:21
Airports
Links
Donate
Help keep this website running!
PayPal
Bitcoin
METAR
KLAX 280453Z 22005KT 10SM CLR 19/15 A2986 RMK AO2 SLP109 T01890150
Current Weather Conditions at KLAX
VFR 04:53:00 28-06-17
Automated station
Altimeter:29.86 hg
Temp:18.9°c 64°f
Dew point:15.0°c 59°f
Wind:5 knots, 5.8 mph, 3 m/s, from 220°
Visibility:10.0 statute miles
(CLR) Clear
Past METAR reports
VFR 03:53:00 28-06-17
Automated station
Altimeter:29.84 hg
Temp:18.3°c 64°f
Dew point:15.0°c 59°f
Wind:8 knots, 9.2 mph, 4 m/s, from 230°
Visibility:10.0 statute miles
(CLR) Clear
KLAX 280353Z 23008KT 10SM CLR 18/15 A2984 RMK AO2 SLP102 T01830150
VFR 02:53:00 28-06-17
Automated station
Altimeter:29.84 hg
Temp:18.9°c 64°f
Dew point:15.0°c 59°f
Wind:11 knots, 12.7 mph, 6 m/s, from 260°
Visibility:10.0 statute miles
(CLR) Clear
KLAX 280253Z 26011KT 10SM CLR 19/15 A2984 RMK AO2 SLP101 T01890150 56005
VFR 01:53:00 28-06-17
Automated station
Altimeter:29.84 hg
Temp:20.0°c 68°f
Dew point:14.4°c 57°f
Wind:12 knots, 13.8 mph, 6 m/s, from 260°
Visibility:10.0 statute miles
(CLR) Clear
KLAX 280153Z 26012KT 10SM CLR 20/14 A2984 RMK AO2 SLP103 T02000144
VFR 00:53:00 28-06-17
Automated station
Altimeter:29.84 hg
Temp:21.7°c 70°f
Dew point:14.4°c 57°f
Wind:9 knots, 10.4 mph, 5 m/s, from 270°
Visibility:10.0 statute miles
(CLR) Clear
KLAX 280053Z 27009KT 10SM CLR 22/14 A2984 RMK AO2 SLP104 T02170144
VFR 23:53:00 27-06-17
Automated station
Altimeter:29.85 hg
Temp:22.2°c 72°f
Dew point:13.3°c 55°f
Wind:10 knots, 11.5 mph, 5 m/s, from 260°
Visibility:10.0 statute miles
(CLR) Clear
KLAX 272353Z 26010KT 10SM CLR 22/13 A2985 RMK AO2 SLP108 T02220133 10250 20222 56012
TAF
KLAX 280426Z 2804/2906 26009KT P6SM SKC FM281100 VRB03KT 5SM BR BKN007 FM281600 23005KT P6SM SCT012 FM282000 25012KT P6SM SKC FM290200 26008KT P6SM SKC
Forecast at KLAX
04:00 28-06-17 to 11:00 28-06-17
Wind:9 Knots from 260°
Visibility:6.21 statute miles
SKC Clear
FM 11:00 28-06-17 to 16:00 28-06-17
BR
Wind:3 Knots from 360°
Visibility:5.0 statute miles
700BKN Broken
FM 16:00 28-06-17 to 20:00 28-06-17
Wind:5 Knots from 230°
Visibility:6.21 statute miles
1200SCT Scattered
FM 20:00 28-06-17 to 02:00 29-06-17
Wind:12 Knots from 250°
Visibility:6.21 statute miles
SKC Clear
FM 02:00 29-06-17 to 06:00 29-06-17
Wind:8 Knots from 260°
Visibility:6.21 statute miles
SKC Clear